sensor_id;sensor_type;location;lat;lon;timestamp;P1;durP1;ratioP1;P2;durP2;ratioP2
16506;SDS011;8366;51.020;7.642;2022-07-09T00:01:20;4.50;;;3.63;;
16506;SDS011;8366;51.020;7.642;2022-07-09T00:03:46;3.78;;;3.38;;
16506;SDS011;8366;51.020;7.642;2022-07-09T00:06:12;5.75;;;3.67;;
16506;SDS011;8366;51.020;7.642;2022-07-09T00:08:40;5.03;;;3.00;;
16506;SDS011;8366;51.020;7.642;2022-07-09T00:11:06;4.70;;;3.28;;
16506;SDS011;8366;51.020;7.642;2022-07-09T00:13:33;4.03;;;3.50;;
16506;SDS011;8366;51.020;7.642;2022-07-09T00:15:59;4.82;;;3.92;;
16506;SDS011;8366;51.020;7.642;2022-07-09T00:18:26;4.47;;;3.50;;
16506;SDS011;8366;51.020;7.642;2022-07-09T00:20:53;5.20;;;4.00;;
16506;SDS011;8366;51.020;7.642;2022-07-09T00:23:19;5.72;;;4.03;;
16506;SDS011;8366;51.020;7.642;2022-07-09T00:25:47;5.60;;;4.10;;
16506;SDS011;8366;51.020;7.642;2022-07-09T00:28:14;5.68;;;4.20;;
16506;SDS011;8366;51.020;7.642;2022-07-09T00:30:40;4.78;;;3.60;;
16506;SDS011;8366;51.020;7.642;2022-07-09T00:33:07;5.75;;;3.55;;
16506;SDS011;8366;51.020;7.642;2022-07-09T00:35:33;5.35;;;3.60;;
16506;SDS011;8366;51.020;7.642;2022-07-09T00:38:00;5.50;;;3.40;;
16506;SDS011;8366;51.020;7.642;2022-07-09T00:40:26;5.30;;;3.83;;
16506;SDS011;8366;51.020;7.642;2022-07-09T00:42:54;4.28;;;3.88;;
16506;SDS011;8366;51.020;7.642;2022-07-09T00:45:20;4.20;;;3.50;;
16506;SDS011;8366;51.020;7.642;2022-07-09T00:47:47;4.10;;;3.47;;
16506;SDS011;8366;51.020;7.642;2022-07-09T00:50:13;4.38;;;3.67;;
16506;SDS011;8366;51.020;7.642;2022-07-09T00:52:40;4.97;;;3.40;;
16506;SDS011;8366;51.020;7.642;2022-07-09T00:55:08;3.97;;;3.55;;
16506;SDS011;8366;51.020;7.642;2022-07-09T00:57:36;8.50;;;3.78;;
16506;SDS011;8366;51.020;7.642;2022-07-09T01:00:04;3.90;;;3.28;;
16506;SDS011;8366;51.020;7.642;2022-07-09T01:02:33;3.75;;;3.10;;
16506;SDS011;8366;51.020;7.642;2022-07-09T01:04:59;3.42;;;3.05;;
16506;SDS011;8366;51.020;7.642;2022-07-09T01:07:26;3.60;;;3.30;;
16506;SDS011;8366;51.020;7.642;2022-07-09T01:09:52;4.13;;;3.30;;
16506;SDS011;8366;51.020;7.642;2022-07-09T01:12:19;4.10;;;3.58;;
16506;SDS011;8366;51.020;7.642;2022-07-09T01:14:45;3.55;;;3.15;;
16506;SDS011;8366;51.020;7.642;2022-07-09T01:17:13;4.68;;;3.60;;
16506;SDS011;8366;51.020;7.642;2022-07-09T01:19:39;3.33;;;2.97;;
16506;SDS011;8366;51.020;7.642;2022-07-09T01:22:07;4.43;;;3.60;;
16506;SDS011;8366;51.020;7.642;2022-07-09T01:24:34;5.43;;;3.70;;
16506;SDS011;8366;51.020;7.642;2022-07-09T01:27:01;3.97;;;3.17;;
16506;SDS011;8366;51.020;7.642;2022-07-09T01:29:28;5.38;;;3.00;;
16506;SDS011;8366;51.020;7.642;2022-07-09T01:31:54;3.88;;;3.20;;
16506;SDS011;8366;51.020;7.642;2022-07-09T01:34:21;4.40;;;3.17;;
16506;SDS011;8366;51.020;7.642;2022-07-09T01:36:47;4.10;;;3.58;;
16506;SDS011;8366;51.020;7.642;2022-07-09T01:39:15;5.78;;;3.50;;
16506;SDS011;8366;51.020;7.642;2022-07-09T01:41:41;3.38;;;3.08;;
16506;SDS011;8366;51.020;7.642;2022-07-09T01:44:08;5.78;;;3.55;;
16506;SDS011;8366;51.020;7.642;2022-07-09T01:46:34;3.55;;;3.10;;
16506;SDS011;8366;51.020;7.642;2022-07-09T01:49:01;3.65;;;3.17;;
16506;SDS011;8366;51.020;7.642;2022-07-09T01:51:27;6.20;;;3.30;;
16506;SDS011;8366;51.020;7.642;2022-07-09T01:53:54;4.22;;;3.60;;
16506;SDS011;8366;51.020;7.642;2022-07-09T01:56:21;6.10;;;3.13;;
16506;SDS011;8366;51.020;7.642;2022-07-09T01:58:48;5.15;;;3.60;;
16506;SDS011;8366;51.020;7.642;2022-07-09T02:01:14;5.13;;;3.40;;
16506;SDS011;8366;51.020;7.642;2022-07-09T02:03:41;4.32;;;3.45;;
16506;SDS011;8366;51.020;7.642;2022-07-09T02:06:07;4.30;;;3.67;;
16506;SDS011;8366;51.020;7.642;2022-07-09T02:08:34;3.85;;;3.13;;
16506;SDS011;8366;51.020;7.642;2022-07-09T02:11:01;5.90;;;3.60;;
16506;SDS011;8366;51.020;7.642;2022-07-09T02:13:30;4.53;;;3.40;;
16506;SDS011;8366;51.020;7.642;2022-07-09T02:15:56;6.97;;;3.58;;
16506;SDS011;8366;51.020;7.642;2022-07-09T02:18:25;5.25;;;3.63;;
16506;SDS011;8366;51.020;7.642;2022-07-09T02:20:51;4.15;;;3.40;;
16506;SDS011;8366;51.020;7.642;2022-07-09T02:23:18;6.45;;;3.50;;
16506;SDS011;8366;51.020;7.642;2022-07-09T02:25:44;5.03;;;3.50;;
16506;SDS011;8366;51.020;7.642;2022-07-09T02:28:10;6.40;;;3.50;;
16506;SDS011;8366;51.020;7.642;2022-07-09T02:30:38;4.22;;;3.83;;
16506;SDS011;8366;51.020;7.642;2022-07-09T02:33:05;4.75;;;3.55;;
16506;SDS011;8366;51.020;7.642;2022-07-09T02:35:31;4.15;;;3.60;;
16506;SDS011;8366;51.020;7.642;2022-07-09T02:37:58;3.85;;;3.30;;
16506;SDS011;8366;51.020;7.642;2022-07-09T02:40:24;4.90;;;3.75;;
16506;SDS011;8366;51.020;7.642;2022-07-09T02:42:50;5.07;;;3.60;;
16506;SDS011;8366;51.020;7.642;2022-07-09T02:45:17;5.70;;;3.70;;
16506;SDS011;8366;51.020;7.642;2022-07-09T02:47:45;4.68;;;3.83;;
16506;SDS011;8366;51.020;7.642;2022-07-09T02:50:11;3.92;;;3.53;;
16506;SDS011;8366;51.020;7.642;2022-07-09T02:52:38;4.85;;;3.20;;
16506;SDS011;8366;51.020;7.642;2022-07-09T02:55:04;5.22;;;3.70;;
16506;SDS011;8366;51.020;7.642;2022-07-09T02:57:31;4.28;;;3.40;;
16506;SDS011;8366;51.020;7.642;2022-07-09T02:59:58;5.47;;;3.58;;
16506;SDS011;8366;51.020;7.642;2022-07-09T03:02:25;4.43;;;3.40;;
16506;SDS011;8366;51.020;7.642;2022-07-09T03:04:52;3.80;;;3.40;;
16506;SDS011;8366;51.020;7.642;2022-07-09T03:07:19;3.72;;;3.40;;
16506;SDS011;8366;51.020;7.642;2022-07-09T03:09:46;4.28;;;3.55;;
16506;SDS011;8366;51.020;7.642;2022-07-09T03:12:12;3.95;;;3.55;;
16506;SDS011;8366;51.020;7.642;2022-07-09T03:14:39;5.45;;;3.47;;
16506;SDS011;8366;51.020;7.642;2022-07-09T03:17:05;4.90;;;3.38;;
16506;SDS011;8366;51.020;7.642;2022-07-09T03:19:32;5.22;;;3.40;;
16506;SDS011;8366;51.020;7.642;2022-07-09T03:22:00;4.97;;;3.53;;
16506;SDS011;8366;51.020;7.642;2022-07-09T03:24:26;3.53;;;3.22;;
16506;SDS011;8366;51.020;7.642;2022-07-09T03:26:52;3.65;;;3.35;;
16506;SDS011;8366;51.020;7.642;2022-07-09T03:29:19;4.07;;;3.35;;
16506;SDS011;8366;51.020;7.642;2022-07-09T03:31:45;5.15;;;3.40;;
16506;SDS011;8366;51.020;7.642;2022-07-09T03:34:12;5.57;;;3.67;;
16506;SDS011;8366;51.020;7.642;2022-07-09T03:36:38;4.10;;;3.50;;
16506;SDS011;8366;51.020;7.642;2022-07-09T03:39:06;3.40;;;3.10;;
16506;SDS011;8366;51.020;7.642;2022-07-09T03:41:32;5.10;;;3.90;;
16506;SDS011;8366;51.020;7.642;2022-07-09T03:43:59;5.22;;;3.40;;
16506;SDS011;8366;51.020;7.642;2022-07-09T03:46:25;3.95;;;3.55;;
16506;SDS011;8366;51.020;7.642;2022-07-09T03:48:52;3.58;;;3.28;;
16506;SDS011;8366;51.020;7.642;2022-07-09T03:51:18;5.65;;;3.55;;
16506;SDS011;8366;51.020;7.642;2022-07-09T03:53:45;4.15;;;3.20;;
16506;SDS011;8366;51.020;7.642;2022-07-09T03:56:12;5.00;;;3.40;;
16506;SDS011;8366;51.020;7.642;2022-07-09T03:58:39;6.25;;;4.05;;
16506;SDS011;8366;51.020;7.642;2022-07-09T04:01:05;5.05;;;3.50;;
16506;SDS011;8366;51.020;7.642;2022-07-09T04:03:32;5.68;;;3.30;;
16506;SDS011;8366;51.020;7.642;2022-07-09T04:05:58;4.55;;;3.58;;
16506;SDS011;8366;51.020;7.642;2022-07-09T04:08:25;4.68;;;3.53;;
16506;SDS011;8366;51.020;7.642;2022-07-09T04:10:51;4.70;;;4.00;;
16506;SDS011;8366;51.020;7.642;2022-07-09T04:13:19;5.47;;;3.65;;
16506;SDS011;8366;51.020;7.642;2022-07-09T04:15:45;4.18;;;3.30;;
16506;SDS011;8366;51.020;7.642;2022-07-09T04:18:13;6.03;;;3.50;;
16506;SDS011;8366;51.020;7.642;2022-07-09T04:20:40;5.28;;;3.67;;
16506;SDS011;8366;51.020;7.642;2022-07-09T04:23:06;4.95;;;3.60;;
16506;SDS011;8366;51.020;7.642;2022-07-09T04:25:33;4.30;;;3.75;;
16506;SDS011;8366;51.020;7.642;2022-07-09T04:27:59;4.07;;;3.38;;
16506;SDS011;8366;51.020;7.642;2022-07-09T04:30:27;5.18;;;3.33;;
16506;SDS011;8366;51.020;7.642;2022-07-09T04:32:54;4.45;;;3.78;;
16506;SDS011;8366;51.020;7.642;2022-07-09T04:35:20;4.45;;;3.47;;
16506;SDS011;8366;51.020;7.642;2022-07-09T04:37:46;5.25;;;3.45;;
16506;SDS011;8366;51.020;7.642;2022-07-09T04:40:13;5.32;;;3.45;;
16506;SDS011;8366;51.020;7.642;2022-07-09T04:42:39;3.88;;;3.10;;
16506;SDS011;8366;51.020;7.642;2022-07-09T04:45:06;4.55;;;3.60;;
16506;SDS011;8366;51.020;7.642;2022-07-09T04:47:34;5.30;;;3.65;;
16506;SDS011;8366;51.020;7.642;2022-07-09T04:50:01;3.80;;;3.35;;
16506;SDS011;8366;51.020;7.642;2022-07-09T04:52:29;3.60;;;3.25;;
16506;SDS011;8366;51.020;7.642;2022-07-09T04:54:55;5.15;;;3.80;;
16506;SDS011;8366;51.020;7.642;2022-07-09T04:57:22;6.07;;;3.58;;
16506;SDS011;8366;51.020;7.642;2022-07-09T04:59:48;4.32;;;3.75;;
16506;SDS011;8366;51.020;7.642;2022-07-09T05:02:14;4.50;;;3.47;;
16506;SDS011;8366;51.020;7.642;2022-07-09T05:04:42;5.25;;;3.80;;
16506;SDS011;8366;51.020;7.642;2022-07-09T05:07:09;5.03;;;3.45;;
16506;SDS011;8366;51.020;7.642;2022-07-09T05:09:35;3.80;;;3.50;;
16506;SDS011;8366;51.020;7.642;2022-07-09T05:12:02;5.30;;;3.80;;
16506;SDS011;8366;51.020;7.642;2022-07-09T05:14:29;4.82;;;3.70;;
16506;SDS011;8366;51.020;7.642;2022-07-09T05:16:55;5.22;;;3.60;;
16506;SDS011;8366;51.020;7.642;2022-07-09T05:19:22;3.60;;;3.30;;
16506;SDS011;8366;51.020;7.642;2022-07-09T05:21:49;6.10;;;3.90;;
16506;SDS011;8366;51.020;7.642;2022-07-09T05:24:16;6.72;;;3.85;;
16506;SDS011;8366;51.020;7.642;2022-07-09T05:26:42;4.63;;;3.70;;
16506;SDS011;8366;51.020;7.642;2022-07-09T05:29:09;5.72;;;4.07;;
16506;SDS011;8366;51.020;7.642;2022-07-09T05:31:35;5.78;;;4.28;;
16506;SDS011;8366;51.020;7.642;2022-07-09T05:34:02;4.15;;;3.75;;
16506;SDS011;8366;51.020;7.642;2022-07-09T05:36:28;6.15;;;4.05;;
16506;SDS011;8366;51.020;7.642;2022-07-09T05:38:56;4.07;;;3.65;;
16506;SDS011;8366;51.020;7.642;2022-07-09T05:41:23;4.57;;;4.10;;
16506;SDS011;8366;51.020;7.642;2022-07-09T05:43:49;5.28;;;4.10;;
16506;SDS011;8366;51.020;7.642;2022-07-09T05:46:16;4.45;;;3.80;;
16506;SDS011;8366;51.020;7.642;2022-07-09T05:48:42;5.45;;;3.83;;
16506;SDS011;8366;51.020;7.642;2022-07-09T05:51:08;6.10;;;4.20;;
16506;SDS011;8366;51.020;7.642;2022-07-09T05:53:35;4.50;;;3.83;;
16506;SDS011;8366;51.020;7.642;2022-07-09T05:56:03;6.53;;;3.92;;
16506;SDS011;8366;51.020;7.642;2022-07-09T05:58:30;4.72;;;4.13;;
16506;SDS011;8366;51.020;7.642;2022-07-09T06:00:56;6.38;;;4.63;;
16506;SDS011;8366;51.020;7.642;2022-07-09T06:03:22;6.18;;;4.45;;
16506;SDS011;8366;51.020;7.642;2022-07-09T06:05:49;6.80;;;5.22;;
16506;SDS011;8366;51.020;7.642;2022-07-09T06:08:15;5.90;;;5.30;;
16506;SDS011;8366;51.020;7.642;2022-07-09T06:10:42;6.25;;;5.65;;
16506;SDS011;8366;51.020;7.642;2022-07-09T06:13:09;8.48;;;6.53;;
16506;SDS011;8366;51.020;7.642;2022-07-09T06:15:36;8.23;;;7.38;;
16506;SDS011;8366;51.020;7.642;2022-07-09T06:18:02;8.13;;;7.32;;
16506;SDS011;8366;51.020;7.642;2022-07-09T06:20:29;8.82;;;7.28;;
16506;SDS011;8366;51.020;7.642;2022-07-09T06:22:56;8.45;;;7.05;;
16506;SDS011;8366;51.020;7.642;2022-07-09T06:25:22;7.22;;;6.53;;
16506;SDS011;8366;51.020;7.642;2022-07-09T06:27:49;6.78;;;5.75;;
16506;SDS011;8366;51.020;7.642;2022-07-09T06:30:16;7.82;;;5.85;;
16506;SDS011;8366;51.020;7.642;2022-07-09T06:32:43;6.95;;;6.05;;
16506;SDS011;8366;51.020;7.642;2022-07-09T06:35:09;6.80;;;6.10;;
16506;SDS011;8366;51.020;7.642;2022-07-09T06:37:36;8.77;;;6.15;;
16506;SDS011;8366;51.020;7.642;2022-07-09T06:40:02;9.93;;;6.05;;
16506;SDS011;8366;51.020;7.642;2022-07-09T06:42:29;6.93;;;5.80;;
16506;SDS011;8366;51.020;7.642;2022-07-09T06:44:56;7.75;;;6.72;;
16506;SDS011;8366;51.020;7.642;2022-07-09T06:47:23;9.07;;;7.05;;
16506;SDS011;8366;51.020;7.642;2022-07-09T06:49:50;8.18;;;6.45;;
16506;SDS011;8366;51.020;7.642;2022-07-09T06:52:16;8.13;;;6.47;;
16506;SDS011;8366;51.020;7.642;2022-07-09T06:54:43;9.57;;;6.72;;
16506;SDS011;8366;51.020;7.642;2022-07-09T06:57:09;9.50;;;7.40;;
16506;SDS011;8366;51.020;7.642;2022-07-09T06:59:36;11.07;;;7.20;;
16506;SDS011;8366;51.020;7.642;2022-07-09T07:02:03;8.77;;;7.10;;
16506;SDS011;8366;51.020;7.642;2022-07-09T07:04:32;10.95;;;6.57;;
16506;SDS011;8366;51.020;7.642;2022-07-09T07:06:59;9.30;;;6.88;;
16506;SDS011;8366;51.020;7.642;2022-07-09T07:09:25;7.95;;;6.40;;
16506;SDS011;8366;51.020;7.642;2022-07-09T07:11:53;8.40;;;6.22;;
16506;SDS011;8366;51.020;7.642;2022-07-09T07:14:20;10.20;;;7.03;;
16506;SDS011;8366;51.020;7.642;2022-07-09T07:16:46;9.20;;;7.38;;
16506;SDS011;8366;51.020;7.642;2022-07-09T07:19:13;12.48;;;7.40;;
16506;SDS011;8366;51.020;7.642;2022-07-09T07:21:40;8.20;;;6.45;;
16506;SDS011;8366;51.020;7.642;2022-07-09T07:24:07;9.13;;;5.82;;
16506;SDS011;8366;51.020;7.642;2022-07-09T07:26:33;7.80;;;5.30;;
16506;SDS011;8366;51.020;7.642;2022-07-09T07:29:00;7.78;;;5.20;;
16506;SDS011;8366;51.020;7.642;2022-07-09T07:31:27;6.53;;;4.18;;
16506;SDS011;8366;51.020;7.642;2022-07-09T07:33:53;8.13;;;4.93;;
16506;SDS011;8366;51.020;7.642;2022-07-09T07:36:20;6.68;;;4.40;;
16506;SDS011;8366;51.020;7.642;2022-07-09T07:38:47;4.72;;;3.45;;
16506;SDS011;8366;51.020;7.642;2022-07-09T07:41:14;5.07;;;4.50;;
16506;SDS011;8366;51.020;7.642;2022-07-09T07:43:41;4.43;;;3.22;;
16506;SDS011;8366;51.020;7.642;2022-07-09T07:46:08;4.03;;;3.35;;
16506;SDS011;8366;51.020;7.642;2022-07-09T07:48:34;6.25;;;4.43;;
16506;SDS011;8366;51.020;7.642;2022-07-09T07:51:01;6.95;;;4.40;;
16506;SDS011;8366;51.020;7.642;2022-07-09T07:53:29;6.32;;;4.10;;
16506;SDS011;8366;51.020;7.642;2022-07-09T07:55:57;3.03;;;2.33;;
16506;SDS011;8366;51.020;7.642;2022-07-09T07:58:24;1.90;;;1.80;;
16506;SDS011;8366;51.020;7.642;2022-07-09T08:00:50;3.05;;;1.77;;
16506;SDS011;8366;51.020;7.642;2022-07-09T08:03:16;3.17;;;2.08;;
16506;SDS011;8366;51.020;7.642;2022-07-09T08:05:43;1.70;;;1.60;;
16506;SDS011;8366;51.020;7.642;2022-07-09T08:08:09;3.38;;;2.10;;
16506;SDS011;8366;51.020;7.642;2022-07-09T08:10:36;4.65;;;1.90;;
16506;SDS011;8366;51.020;7.642;2022-07-09T08:13:04;3.78;;;2.08;;
16506;SDS011;8366;51.020;7.642;2022-07-09T08:15:31;2.28;;;1.80;;
16506;SDS011;8366;51.020;7.642;2022-07-09T08:17:57;2.08;;;1.35;;
16506;SDS011;8366;51.020;7.642;2022-07-09T08:20:24;1.85;;;1.55;;
16506;SDS011;8366;51.020;7.642;2022-07-09T08:22:50;2.28;;;1.83;;
16506;SDS011;8366;51.020;7.642;2022-07-09T08:25:17;1.90;;;1.63;;
16506;SDS011;8366;51.020;7.642;2022-07-09T08:27:43;1.77;;;1.50;;
16506;SDS011;8366;51.020;7.642;2022-07-09T08:30:11;2.05;;;1.65;;
16506;SDS011;8366;51.020;7.642;2022-07-09T08:32:37;2.47;;;1.55;;
16506;SDS011;8366;51.020;7.642;2022-07-09T08:35:04;1.50;;;1.40;;
16506;SDS011;8366;51.020;7.642;2022-07-09T08:37:32;2.97;;;1.50;;
16506;SDS011;8366;51.020;7.642;2022-07-09T08:39:59;2.10;;;1.55;;
16506;SDS011;8366;51.020;7.642;2022-07-09T08:42:26;4.10;;;2.08;;
16506;SDS011;8366;51.020;7.642;2022-07-09T08:44:52;2.95;;;2.10;;
16506;SDS011;8366;51.020;7.642;2022-07-09T08:47:21;2.50;;;1.63;;
16506;SDS011;8366;51.020;7.642;2022-07-09T08:49:48;3.78;;;2.20;;
16506;SDS011;8366;51.020;7.642;2022-07-09T08:52:15;3.38;;;2.05;;
16506;SDS011;8366;51.020;7.642;2022-07-09T08:54:42;2.70;;;2.35;;
16506;SDS011;8366;51.020;7.642;2022-07-09T08:57:10;2.40;;;2.20;;
16506;SDS011;8366;51.020;7.642;2022-07-09T08:59:36;2.92;;;2.08;;
16506;SDS011;8366;51.020;7.642;2022-07-09T09:02:03;6.97;;;2.67;;
16506;SDS011;8366;51.020;7.642;2022-07-09T09:04:32;7.65;;;2.40;;
16506;SDS011;8366;51.020;7.642;2022-07-09T09:06:59;4.30;;;2.90;;
16506;SDS011;8366;51.020;7.642;2022-07-09T09:09:26;5.15;;;3.08;;
16506;SDS011;8366;51.020;7.642;2022-07-09T09:11:52;9.13;;;3.08;;
16506;SDS011;8366;51.020;7.642;2022-07-09T09:14:22;4.07;;;3.33;;
16506;SDS011;8366;51.020;7.642;2022-07-09T09:16:50;4.57;;;3.60;;
16506;SDS011;8366;51.020;7.642;2022-07-09T09:19:17;4.05;;;3.40;;
16506;SDS011;8366;51.020;7.642;2022-07-09T09:21:49;5.60;;;3.60;;
16506;SDS011;8366;51.020;7.642;2022-07-09T09:24:15;3.95;;;3.53;;
16506;SDS011;8366;51.020;7.642;2022-07-09T09:26:48;5.45;;;3.35;;
16506;SDS011;8366;51.020;7.642;2022-07-09T09:29:14;3.85;;;3.42;;
16506;SDS011;8366;51.020;7.642;2022-07-09T09:31:41;5.05;;;3.97;;
16506;SDS011;8366;51.020;7.642;2022-07-09T09:34:11;4.88;;;4.10;;
16506;SDS011;8366;51.020;7.642;2022-07-09T09:36:39;5.30;;;3.70;;
16506;SDS011;8366;51.020;7.642;2022-07-09T09:39:11;5.32;;;3.80;;
16506;SDS011;8366;51.020;7.642;2022-07-09T09:41:39;3.72;;;3.33;;
16506;SDS011;8366;51.020;7.642;2022-07-09T09:44:07;4.45;;;3.42;;
16506;SDS011;8366;51.020;7.642;2022-07-09T09:46:35;4.35;;;3.13;;
16506;SDS011;8366;51.020;7.642;2022-07-09T09:49:02;3.35;;;3.05;;
16506;SDS011;8366;51.020;7.642;2022-07-09T09:51:33;3.92;;;2.92;;
16506;SDS011;8366;51.020;7.642;2022-07-09T09:54:01;3.72;;;2.70;;
16506;SDS011;8366;51.020;7.642;2022-07-09T09:56:29;2.92;;;2.50;;
16506;SDS011;8366;51.020;7.642;2022-07-09T09:58:56;3.45;;;2.55;;
16506;SDS011;8366;51.020;7.642;2022-07-09T10:01:22;4.13;;;2.45;;
16506;SDS011;8366;51.020;7.642;2022-07-09T10:03:49;2.25;;;2.00;;
16506;SDS011;8366;51.020;7.642;2022-07-09T10:06:16;2.45;;;2.17;;
16506;SDS011;8366;51.020;7.642;2022-07-09T10:08:42;3.90;;;1.90;;
16506;SDS011;8366;51.020;7.642;2022-07-09T10:11:09;2.63;;;1.75;;
16506;SDS011;8366;51.020;7.642;2022-07-09T10:13:38;2.72;;;2.03;;
16506;SDS011;8366;51.020;7.642;2022-07-09T10:16:15;2.08;;;1.80;;
16506;SDS011;8366;51.020;7.642;2022-07-09T10:18:49;3.35;;;2.00;;
16506;SDS011;8366;51.020;7.642;2022-07-09T10:21:16;2.45;;;2.25;;
16506;SDS011;8366;51.020;7.642;2022-07-09T10:23:48;3.67;;;2.20;;
16506;SDS011;8366;51.020;7.642;2022-07-09T10:26:14;2.80;;;2.50;;
16506;SDS011;8366;51.020;7.642;2022-07-09T10:28:42;3.55;;;2.45;;
16506;SDS011;8366;51.020;7.642;2022-07-09T10:31:09;3.92;;;2.75;;
16506;SDS011;8366;51.020;7.642;2022-07-09T10:33:37;2.83;;;2.33;;
16506;SDS011;8366;51.020;7.642;2022-07-09T10:36:13;2.60;;;2.40;;
16506;SDS011;8366;51.020;7.642;2022-07-09T10:38:50;3.20;;;2.40;;
16506;SDS011;8366;51.020;7.642;2022-07-09T10:41:20;4.07;;;2.28;;
16506;SDS011;8366;51.020;7.642;2022-07-09T10:43:50;3.33;;;2.25;;
16506;SDS011;8366;51.020;7.642;2022-07-09T10:46:17;3.38;;;2.40;;
16506;SDS011;8366;51.020;7.642;2022-07-09T10:48:44;3.47;;;2.30;;
16506;SDS011;8366;51.020;7.642;2022-07-09T10:51:16;5.82;;;2.58;;
16506;SDS011;8366;51.020;7.642;2022-07-09T10:53:43;3.08;;;2.35;;
16506;SDS011;8366;51.020;7.642;2022-07-09T10:56:09;2.40;;;2.13;;
16506;SDS011;8366;51.020;7.642;2022-07-09T10:58:36;3.88;;;2.47;;
16506;SDS011;8366;51.020;7.642;2022-07-09T11:01:03;3.30;;;2.08;;
16506;SDS011;8366;51.020;7.642;2022-07-09T11:03:31;2.60;;;2.13;;
16506;SDS011;8366;51.020;7.642;2022-07-09T11:05:58;2.88;;;1.80;;
16506;SDS011;8366;51.020;7.642;2022-07-09T11:08:24;2.45;;;1.90;;
16506;SDS011;8366;51.020;7.642;2022-07-09T11:10:51;2.65;;;1.80;;
16506;SDS011;8366;51.020;7.642;2022-07-09T11:13:17;4.75;;;1.90;;
16506;SDS011;8366;51.020;7.642;2022-07-09T11:15:49;2.03;;;1.73;;
16506;SDS011;8366;51.020;7.642;2022-07-09T11:18:17;2.58;;;1.70;;
16506;SDS011;8366;51.020;7.642;2022-07-09T11:20:44;2.65;;;1.80;;
16506;SDS011;8366;51.020;7.642;2022-07-09T11:23:12;3.05;;;1.58;;
16506;SDS011;8366;51.020;7.642;2022-07-09T11:25:39;2.90;;;1.73;;
16506;SDS011;8366;51.020;7.642;2022-07-09T11:28:07;3.22;;;2.20;;
16506;SDS011;8366;51.020;7.642;2022-07-09T11:30:34;4.25;;;2.22;;
16506;SDS011;8366;51.020;7.642;2022-07-09T11:33:02;2.40;;;1.80;;
16506;SDS011;8366;51.020;7.642;2022-07-09T11:35:30;2.20;;;2.00;;
16506;SDS011;8366;51.020;7.642;2022-07-09T11:37:58;3.13;;;2.45;;
16506;SDS011;8366;51.020;7.642;2022-07-09T11:40:25;4.85;;;2.15;;
16506;SDS011;8366;51.020;7.642;2022-07-09T11:42:52;3.83;;;2.38;;
16506;SDS011;8366;51.020;7.642;2022-07-09T11:45:19;2.65;;;2.45;;
16506;SDS011;8366;51.020;7.642;2022-07-09T11:47:46;2.47;;;2.00;;
16506;SDS011;8366;51.020;7.642;2022-07-09T11:50:14;4.20;;;2.40;;
16506;SDS011;8366;51.020;7.642;2022-07-09T11:52:45;3.83;;;2.10;;
16506;SDS011;8366;51.020;7.642;2022-07-09T11:55:14;2.80;;;2.10;;
16506;SDS011;8366;51.020;7.642;2022-07-09T11:57:50;2.58;;;1.83;;
16506;SDS011;8366;51.020;7.642;2022-07-09T12:00:20;2.00;;;1.75;;
16506;SDS011;8366;51.020;7.642;2022-07-09T12:02:47;2.95;;;2.20;;
16506;SDS011;8366;51.020;7.642;2022-07-09T12:05:23;3.63;;;1.70;;
16506;SDS011;8366;51.020;7.642;2022-07-09T12:07:52;4.38;;;1.60;;
16506;SDS011;8366;51.020;7.642;2022-07-09T12:10:24;1.77;;;1.58;;
16506;SDS011;8366;51.020;7.642;2022-07-09T12:12:52;2.15;;;1.40;;
16506;SDS011;8366;51.020;7.642;2022-07-09T12:15:18;3.35;;;1.73;;
16506;SDS011;8366;51.020;7.642;2022-07-09T12:17:45;2.60;;;1.63;;
16506;SDS011;8366;51.020;7.642;2022-07-09T12:20:16;2.85;;;1.58;;
16506;SDS011;8366;51.020;7.642;2022-07-09T12:22:43;2.40;;;1.63;;
16506;SDS011;8366;51.020;7.642;2022-07-09T12:25:11;2.65;;;1.75;;
16506;SDS011;8366;51.020;7.642;2022-07-09T12:27:38;2.25;;;1.50;;
16506;SDS011;8366;51.020;7.642;2022-07-09T12:30:06;3.60;;;1.52;;
16506;SDS011;8366;51.020;7.642;2022-07-09T12:32:33;3.50;;;1.60;;
16506;SDS011;8366;51.020;7.642;2022-07-09T12:35:00;2.83;;;1.80;;
16506;SDS011;8366;51.020;7.642;2022-07-09T12:37:27;4.13;;;1.80;;
16506;SDS011;8366;51.020;7.642;2022-07-09T12:39:54;1.90;;;1.73;;
16506;SDS011;8366;51.020;7.642;2022-07-09T12:42:21;1.70;;;1.58;;
16506;SDS011;8366;51.020;7.642;2022-07-09T12:44:48;1.70;;;1.60;;
16506;SDS011;8366;51.020;7.642;2022-07-09T12:47:15;1.60;;;1.50;;
16506;SDS011;8366;51.020;7.642;2022-07-09T12:49:42;2.60;;;1.80;;
16506;SDS011;8366;51.020;7.642;2022-07-09T12:52:09;2.92;;;1.90;;
16506;SDS011;8366;51.020;7.642;2022-07-09T12:54:35;1.80;;;1.40;;
16506;SDS011;8366;51.020;7.642;2022-07-09T12:57:02;1.92;;;1.83;;
16506;SDS011;8366;51.020;7.642;2022-07-09T12:59:30;3.47;;;2.00;;
16506;SDS011;8366;51.020;7.642;2022-07-09T13:01:57;5.80;;;2.70;;
16506;SDS011;8366;51.020;7.642;2022-07-09T13:04:23;1.60;;;1.50;;
16506;SDS011;8366;51.020;7.642;2022-07-09T13:06:50;1.90;;;1.70;;
16506;SDS011;8366;51.020;7.642;2022-07-09T13:09:16;2.60;;;1.58;;
16506;SDS011;8366;51.020;7.642;2022-07-09T13:11:43;3.15;;;1.67;;
16506;SDS011;8366;51.020;7.642;2022-07-09T13:14:09;2.45;;;1.60;;
16506;SDS011;8366;51.020;7.642;2022-07-09T13:16:37;2.40;;;1.70;;
16506;SDS011;8366;51.020;7.642;2022-07-09T13:19:04;2.40;;;1.75;;
16506;SDS011;8366;51.020;7.642;2022-07-09T13:21:31;1.60;;;1.50;;
16506;SDS011;8366;51.020;7.642;2022-07-09T13:23:57;2.63;;;1.83;;
16506;SDS011;8366;51.020;7.642;2022-07-09T13:26:24;3.10;;;1.70;;
16506;SDS011;8366;51.020;7.642;2022-07-09T13:28:51;3.28;;;1.70;;
16506;SDS011;8366;51.020;7.642;2022-07-09T13:31:17;2.33;;;1.80;;
16506;SDS011;8366;51.020;7.642;2022-07-09T13:33:47;3.42;;;2.10;;
16506;SDS011;8366;51.020;7.642;2022-07-09T13:36:14;2.92;;;2.25;;
16506;SDS011;8366;51.020;7.642;2022-07-09T13:38:40;5.47;;;1.80;;
16506;SDS011;8366;51.020;7.642;2022-07-09T13:41:06;2.78;;;1.67;;
16506;SDS011;8366;51.020;7.642;2022-07-09T13:43:33;4.70;;;2.00;;
16506;SDS011;8366;51.020;7.642;2022-07-09T13:45:59;3.00;;;1.52;;
16506;SDS011;8366;51.020;7.642;2022-07-09T13:48:26;1.70;;;1.60;;
16506;SDS011;8366;51.020;7.642;2022-07-09T13:50:54;2.67;;;1.67;;
16506;SDS011;8366;51.020;7.642;2022-07-09T13:53:21;3.13;;;1.90;;
16506;SDS011;8366;51.020;7.642;2022-07-09T13:55:47;2.55;;;1.90;;
16506;SDS011;8366;51.020;7.642;2022-07-09T13:58:14;2.00;;;1.90;;
16506;SDS011;8366;51.020;7.642;2022-07-09T14:00:41;3.47;;;2.00;;
16506;SDS011;8366;51.020;7.642;2022-07-09T14:03:07;3.80;;;2.00;;
16506;SDS011;8366;51.020;7.642;2022-07-09T14:05:34;3.03;;;2.20;;
16506;SDS011;8366;51.020;7.642;2022-07-09T14:08:03;7.15;;;2.10;;
16506;SDS011;8366;51.020;7.642;2022-07-09T14:10:30;2.30;;;1.88;;
16506;SDS011;8366;51.020;7.642;2022-07-09T14:12:56;2.10;;;2.00;;
16506;SDS011;8366;51.020;7.642;2022-07-09T14:15:23;3.45;;;2.22;;
16506;SDS011;8366;51.020;7.642;2022-07-09T14:17:50;4.28;;;2.30;;
16506;SDS011;8366;51.020;7.642;2022-07-09T14:20:16;3.28;;;2.20;;
16506;SDS011;8366;51.020;7.642;2022-07-09T14:22:44;3.30;;;2.33;;
16506;SDS011;8366;51.020;7.642;2022-07-09T14:25:12;10.25;;;3.45;;
16506;SDS011;8366;51.020;7.642;2022-07-09T14:27:38;5.88;;;2.85;;
16506;SDS011;8366;51.020;7.642;2022-07-09T14:30:05;3.15;;;2.60;;
16506;SDS011;8366;51.020;7.642;2022-07-09T14:32:32;2.47;;;2.17;;
16506;SDS011;8366;51.020;7.642;2022-07-09T14:34:58;3.90;;;3.00;;
16506;SDS011;8366;51.020;7.642;2022-07-09T14:37:25;4.88;;;3.53;;
16506;SDS011;8366;51.020;7.642;2022-07-09T14:39:53;4.20;;;3.70;;
16506;SDS011;8366;51.020;7.642;2022-07-09T14:42:20;5.15;;;4.43;;
16506;SDS011;8366;51.020;7.642;2022-07-09T14:44:47;5.93;;;5.30;;
16506;SDS011;8366;51.020;7.642;2022-07-09T14:47:15;7.18;;;5.40;;
16506;SDS011;8366;51.020;7.642;2022-07-09T14:49:41;5.78;;;5.25;;
16506;SDS011;8366;51.020;7.642;2022-07-09T14:52:12;5.75;;;5.20;;
16506;SDS011;8366;51.020;7.642;2022-07-09T14:54:39;6.68;;;6.03;;
16506;SDS011;8366;51.020;7.642;2022-07-09T14:57:05;7.28;;;6.40;;
16506;SDS011;8366;51.020;7.642;2022-07-09T14:59:33;7.40;;;5.95;;